Time;durP1;ratioP1;P1;durP2;ratioP2;P2;SDS_P1;SDS_P2;PMS_P1;PMS_P2;Temp;Humidity;BMP_temperature;BMP_pressure;BME280_temperature;BME280_humidity;BME280_pressure;Samples;Min_cycle;Max_cycle;Signal;HPM_P1;HPM_P2
2021/04/03 00:01:20;;;;;;;2.63;1.33;;;;;;;;;;5012383;28;20161;-75
2021/04/03 00:03:45;;;;;;;2.90;1.17;;;;;;;;;;4979899;28;20454;-75
2021/04/03 00:06:10;;;;;;;2.83;1.23;;;;;;;;;;4979910;28;20496;-75
2021/04/03 00:08:36;;;;;;;2.87;1.20;;;;;;;;;;4995996;28;20049;-75
2021/04/03 00:11:03;;;;;;;2.50;1.30;;;;;;;;;;4979752;28;20014;-75
2021/04/03 00:13:30;;;;;;;2.50;1.20;;;;;;;;;;4982736;28;20108;-75
2021/04/03 00:15:56;;;;;;;2.55;1.20;;;;;;;;;;4983120;28;20021;-75
2021/04/03 00:18:22;;;;;;;2.75;1.45;;;;;;;;;;4983400;28;20029;-75
2021/04/03 00:20:48;;;;;;;2.70;1.30;;;;;;;;;;4999042;28;20503;-75
2021/04/03 00:23:14;;;;;;;2.50;1.45;;;;;;;;;;5015432;28;20029;-76
2021/04/03 00:25:40;;;;;;;2.97;1.30;;;;;;;;;;4998940;28;20035;-75
2021/04/03 00:28:05;;;;;;;2.30;1.20;;;;;;;;;;4995549;28;20025;-75
2021/04/03 00:30:30;;;;;;;2.53;1.03;;;;;;;;;;4996037;28;20040;-76
2021/04/03 00:32:57;;;;;;;1.80;1.03;;;;;;;;;;4979459;28;20061;-75
2021/04/03 00:35:33;;;;;;;2.88;1.30;;;;;;;;;;4995717;28;20034;-75
2021/04/03 00:37:58;;;;;;;2.35;1.13;;;;;;;;;;4983006;28;20055;-75
2021/04/03 00:40:35;;;;;;;1.70;1.07;;;;;;;;;;4997297;28;20029;-75
2021/04/03 00:43:05;;;;;;;2.63;1.20;;;;;;;;;;4996357;28;20033;-75
2021/04/03 00:45:31;;;;;;;1.88;1.00;;;;;;;;;;4995986;28;20065;-75
2021/04/03 00:47:56;;;;;;;2.60;1.20;;;;;;;;;;4995727;28;20501;-75
2021/04/03 00:50:32;;;;;;;3.10;1.10;;;;;;;;;;4995739;28;20029;-75
2021/04/03 00:52:57;;;;;;;2.95;1.17;;;;;;;;;;4982707;28;20032;-75
2021/04/03 00:55:22;;;;;;;2.17;1.10;;;;;;;;;;5014892;28;20116;-74
2021/04/03 00:57:49;;;;;;;2.87;1.23;;;;;;;;;;4998151;28;20049;-75
2021/04/03 01:00:14;;;;;;;1.92;1.10;;;;;;;;;;4998988;28;20148;-75
2021/04/03 01:02:40;;;;;;;2.20;1.00;;;;;;;;;;5014978;28;20041;-75
2021/04/03 01:05:12;;;;;;;1.80;1.10;;;;;;;;;;4998415;28;20065;-74
2021/04/03 01:07:38;;;;;;;1.88;1.10;;;;;;;;;;5015817;28;20571;-76
2021/04/03 01:10:05;;;;;;;2.77;1.30;;;;;;;;;;4982343;28;20045;-75
2021/04/03 01:13:00;;;;;;;2.55;1.20;;;;;;;;;;4982008;28;20852;-75
2021/04/03 01:15:53;;;;;;;3.65;1.30;;;;;;;;;;5032928;28;20021;-75
2021/04/03 01:18:23;;;;;;;2.53;1.30;;;;;;;;;;5031931;28;20071;-74
2021/04/03 01:21:23;;;;;;;2.08;1.20;;;;;;;;;;4994987;28;20025;-75
2021/04/03 01:24:17;;;;;;;1.88;0.90;;;;;;;;;;5032618;28;20409;-75
2021/04/03 01:27:00;;;;;;;1.75;1.02;;;;;;;;;;4995399;28;20053;-75
2021/04/03 01:29:28;;;;;;;2.33;1.17;;;;;;;;;;4997159;28;20103;-75
2021/04/03 01:31:54;;;;;;;2.47;1.20;;;;;;;;;;5032517;28;20021;-75
2021/04/03 01:34:25;;;;;;;2.33;1.00;;;;;;;;;;4998367;28;20032;-75
2021/04/03 01:36:50;;;;;;;1.55;1.00;;;;;;;;;;4998921;28;20025;-75
2021/04/03 01:39:17;;;;;;;2.47;1.20;;;;;;;;;;5001386;28;20511;-75
2021/04/03 01:41:46;;;;;;;2.35;1.15;;;;;;;;;;5001892;28;20021;-75
2021/04/03 01:44:12;;;;;;;2.10;1.10;;;;;;;;;;5002086;28;20472;-75
2021/04/03 01:46:38;;;;;;;2.08;1.10;;;;;;;;;;5001412;28;20029;-75
2021/04/03 01:49:09;;;;;;;1.93;1.10;;;;;;;;;;4981969;28;20133;-75
2021/04/03 01:51:34;;;;;;;2.90;1.20;;;;;;;;;;4982823;28;20084;-75
2021/04/03 01:53:59;;;;;;;2.60;1.17;;;;;;;;;;4993718;28;20033;-75
2021/04/03 01:56:25;;;;;;;2.40;1.13;;;;;;;;;;5001651;28;20455;-75
2021/04/03 01:58:50;;;;;;;3.00;1.10;;;;;;;;;;4985481;28;20048;-75
2021/04/03 02:01:16;;;;;;;1.60;1.07;;;;;;;;;;5017762;28;20104;-75
2021/04/03 02:03:41;;;;;;;1.70;1.03;;;;;;;;;;5001399;28;20396;-75
2021/04/03 02:06:06;;;;;;;2.40;1.27;;;;;;;;;;5001529;28;20103;-75
2021/04/03 02:08:33;;;;;;;2.00;1.10;;;;;;;;;;5001558;28;20041;-75
2021/04/03 02:11:02;;;;;;;1.85;1.08;;;;;;;;;;5017388;28;20491;-75
2021/04/03 02:13:31;;;;;;;2.58;1.13;;;;;;;;;;5001241;28;20036;-75
2021/04/03 02:16:01;;;;;;;2.35;1.10;;;;;;;;;;4982067;28;20022;-75
2021/04/03 02:18:29;;;;;;;2.60;1.15;;;;;;;;;;4981526;28;20192;-74
2021/04/03 02:20:57;;;;;;;2.53;1.20;;;;;;;;;;4981673;28;20022;-75
2021/04/03 02:23:22;;;;;;;2.33;1.13;;;;;;;;;;4984897;28;20048;-75
2021/04/03 02:25:47;;;;;;;1.77;1.03;;;;;;;;;;5000909;28;20540;-75
2021/04/03 02:28:13;;;;;;;2.40;1.00;;;;;;;;;;5017503;28;20112;-75
2021/04/03 02:30:38;;;;;;;1.97;1.00;;;;;;;;;;4984899;28;20061;-75
2021/04/03 02:33:03;;;;;;;6.67;1.03;;;;;;;;;;5001321;28;20104;-75
2021/04/03 02:35:29;;;;;;;2.20;0.90;;;;;;;;;;5000939;28;20540;-75
2021/04/03 02:37:57;;;;;;;2.00;1.10;;;;;;;;;;5000995;28;20049;-75
2021/04/03 02:40:24;;;;;;;2.17;1.08;;;;;;;;;;5000719;28;20079;-75
2021/04/03 02:43:11;;;;;;;1.92;1.00;;;;;;;;;;5016929;28;20033;-75
2021/04/03 02:45:39;;;;;;;3.20;1.20;;;;;;;;;;5017366;28;20034;-75
2021/04/03 02:48:09;;;;;;;1.60;1.00;;;;;;;;;;4984616;28;20022;-75
2021/04/03 02:50:38;;;;;;;1.80;1.02;;;;;;;;;;4983895;28;20037;-75
2021/04/03 02:53:03;;;;;;;2.03;1.10;;;;;;;;;;5000750;28;20036;-75
2021/04/03 02:55:29;;;;;;;2.37;1.00;;;;;;;;;;5000698;28;20527;-75
2021/04/03 02:57:55;;;;;;;2.83;1.10;;;;;;;;;;5000345;28;20025;-74
2021/04/03 03:00:20;;;;;;;2.07;0.97;;;;;;;;;;5000410;28;20052;-75
2021/04/03 03:02:47;;;;;;;2.13;1.17;;;;;;;;;;5000317;28;20022;-75
2021/04/03 03:05:13;;;;;;;2.63;1.20;;;;;;;;;;5000149;28;20021;-75
2021/04/03 03:07:40;;;;;;;2.17;1.03;;;;;;;;;;4984169;28;20022;-76
2021/04/03 03:10:06;;;;;;;1.58;0.98;;;;;;;;;;5016216;28;20033;-75
2021/04/03 03:12:31;;;;;;;2.93;1.20;;;;;;;;;;4999869;28;20029;-75
2021/04/03 03:14:57;;;;;;;2.00;1.00;;;;;;;;;;5000054;28;20508;-75
2021/04/03 03:17:22;;;;;;;1.83;1.00;;;;;;;;;;4984027;28;20037;-76
2021/04/03 03:19:47;;;;;;;2.30;1.10;;;;;;;;;;5016506;28;20097;-75
2021/04/03 03:22:13;;;;;;;2.23;1.20;;;;;;;;;;4999736;28;20044;-75
2021/04/03 03:24:38;;;;;;;1.87;0.93;;;;;;;;;;4983326;28;20120;-75
2021/04/03 03:27:05;;;;;;;2.00;1.00;;;;;;;;;;4983519;28;20112;-74
2021/04/03 03:29:30;;;;;;;1.40;0.98;;;;;;;;;;5016484;28;20080;-76
2021/04/03 03:31:56;;;;;;;1.40;0.97;;;;;;;;;;4999580;28;20492;-75
2021/04/03 03:34:21;;;;;;;1.63;0.87;;;;;;;;;;4983511;28;20055;-75
2021/04/03 03:36:47;;;;;;;2.00;1.07;;;;;;;;;;4999591;28;20412;-75
2021/04/03 03:39:12;;;;;;;1.83;0.93;;;;;;;;;;5000125;28;20531;-75
2021/04/03 03:41:37;;;;;;;2.13;1.10;;;;;;;;;;4999545;28;20507;-75
2021/04/03 03:44:03;;;;;;;2.27;1.10;;;;;;;;;;4999556;28;20068;-75
2021/04/03 03:46:29;;;;;;;2.60;1.17;;;;;;;;;;4983391;28;20033;-75
2021/04/03 03:48:54;;;;;;;2.00;0.80;;;;;;;;;;4999200;28;20772;-74
2021/04/03 03:51:19;;;;;;;1.73;0.90;;;;;;;;;;4999669;28;20501;-76
2021/04/03 03:53:45;;;;;;;1.80;1.20;;;;;;;;;;4999169;28;20068;-75
2021/04/03 03:56:10;;;;;;;1.83;1.03;;;;;;;;;;4999297;28;20057;-75
2021/04/03 03:58:35;;;;;;;2.03;1.00;;;;;;;;;;5015455;28;20116;-74
2021/04/03 04:01:01;;;;;;;1.87;1.10;;;;;;;;;;4998423;28;20539;-74
2021/04/03 04:03:26;;;;;;;2.13;1.17;;;;;;;;;;4983028;28;20116;-75
2021/04/03 04:05:52;;;;;;;2.00;0.90;;;;;;;;;;5033070;28;20029;-75
2021/04/03 04:08:18;;;;;;;1.93;1.20;;;;;;;;;;4999227;28;20129;-74
2021/04/03 04:10:44;;;;;;;1.58;0.80;;;;;;;;;;4983036;28;20029;-74
2021/04/03 04:13:09;;;;;;;2.03;0.93;;;;;;;;;;4999205;28;20160;-74
2021/04/03 04:15:35;;;;;;;1.13;0.80;;;;;;;;;;4982814;28;20476;-75
2021/04/03 04:18:00;;;;;;;2.53;1.07;;;;;;;;;;5015496;28;20028;-75
2021/04/03 04:20:26;;;;;;;1.53;0.90;;;;;;;;;;4998798;28;20171;-75
2021/04/03 04:22:51;;;;;;;2.23;1.10;;;;;;;;;;4982697;28;20033;-75
2021/04/03 04:25:16;;;;;;;1.83;0.80;;;;;;;;;;4998719;28;20112;-74
2021/04/03 04:27:42;;;;;;;1.10;0.73;;;;;;;;;;4998635;28;20056;-74
2021/04/03 04:30:11;;;;;;;2.47;1.10;;;;;;;;;;5033119;28;20053;-75
2021/04/03 04:32:38;;;;;;;1.85;1.00;;;;;;;;;;4998935;28;20557;-75
2021/04/03 04:35:05;;;;;;;1.33;0.80;;;;;;;;;;4999201;28;20382;-75
2021/04/03 04:37:30;;;;;;;1.50;1.00;;;;;;;;;;4998874;28;20419;-74
2021/04/03 04:39:55;;;;;;;3.47;1.00;;;;;;;;;;4998488;28;20037;-74
2021/04/03 04:42:21;;;;;;;1.93;0.90;;;;;;;;;;5032750;28;20022;-74
2021/04/03 04:44:46;;;;;;;2.27;1.10;;;;;;;;;;4998439;28;20117;-74
2021/04/03 04:47:11;;;;;;;1.97;1.10;;;;;;;;;;5032866;28;20028;-75
2021/04/03 04:49:37;;;;;;;2.63;1.10;;;;;;;;;;4982532;28;20033;-75
2021/04/03 04:52:02;;;;;;;1.57;0.80;;;;;;;;;;5015052;28;20025;-75
2021/04/03 04:54:28;;;;;;;1.43;0.90;;;;;;;;;;4998484;28;20029;-75
2021/04/03 04:56:53;;;;;;;1.43;0.87;;;;;;;;;;5015442;28;20115;-74
2021/04/03 04:59:18;;;;;;;2.20;0.97;;;;;;;;;;4998717;28;20130;-74
2021/04/03 05:01:44;;;;;;;1.43;0.80;;;;;;;;;;5014961;28;20117;-75
2021/04/03 05:04:09;;;;;;;1.80;0.80;;;;;;;;;;5014744;28;20040;-75
2021/04/03 05:06:35;;;;;;;2.80;1.00;;;;;;;;;;5024718;23;20124;-77
2021/04/03 05:09:01;;;;;;;1.27;0.90;;;;;;;;;;5032591;28;20037;-76
2021/04/03 05:11:26;;;;;;;1.90;1.00;;;;;;;;;;5034668;28;20120;-76
2021/04/03 05:13:52;;;;;;;1.90;0.80;;;;;;;;;;5035321;28;20627;-76
2021/04/03 05:16:17;;;;;;;1.90;1.00;;;;;;;;;;5036167;28;20146;-76
2021/04/03 05:18:43;;;;;;;2.40;1.10;;;;;;;;;;5002458;28;20119;-75
2021/04/03 05:21:09;;;;;;;1.55;1.00;;;;;;;;;;5018539;28;20480;-76
2021/04/03 05:23:34;;;;;;;1.80;0.93;;;;;;;;;;5018215;28;20048;-76
2021/04/03 05:25:59;;;;;;;2.10;1.00;;;;;;;;;;5018565;28;20120;-76
2021/04/03 05:28:25;;;;;;;1.77;0.80;;;;;;;;;;5036187;28;20548;-76
2021/04/03 05:30:50;;;;;;;1.23;0.87;;;;;;;;;;5001972;28;20025;-77
2021/04/03 05:33:16;;;;;;;1.63;0.90;;;;;;;;;;5018188;28;20061;-76
2021/04/03 05:35:41;;;;;;;1.97;0.90;;;;;;;;;;5035896;28;20053;-76
2021/04/03 05:38:06;;;;;;;1.83;1.00;;;;;;;;;;5018347;28;20104;-76
2021/04/03 05:40:32;;;;;;;1.50;1.00;;;;;;;;;;5018439;28;20029;-76
2021/04/03 05:42:57;;;;;;;1.93;1.03;;;;;;;;;;4985465;28;20116;-76
2021/04/03 05:45:23;;;;;;;1.83;1.00;;;;;;;;;;5018012;28;20026;-76
2021/04/03 05:47:48;;;;;;;1.73;1.00;;;;;;;;;;5017922;28;20036;-76
2021/04/03 05:50:14;;;;;;;2.50;0.90;;;;;;;;;;4985470;28;20467;-76
2021/04/03 05:52:40;;;;;;;2.63;0.90;;;;;;;;;;5001176;28;20079;-76
2021/04/03 05:55:06;;;;;;;1.75;0.88;;;;;;;;;;5001900;28;20079;-76
2021/04/03 05:57:32;;;;;;;1.60;0.88;;;;;;;;;;5001418;28;20435;-76
2021/04/03 05:59:57;;;;;;;2.20;1.10;;;;;;;;;;5017994;28;20064;-77
2021/04/03 06:02:23;;;;;;;1.43;0.90;;;;;;;;;;5000401;28;20025;-77
2021/04/03 06:04:51;;;;;;;2.17;1.07;;;;;;;;;;5001675;28;20072;-77
2021/04/03 06:07:17;;;;;;;2.83;0.90;;;;;;;;;;5017753;28;20052;-76
2021/04/03 06:09:42;;;;;;;1.87;0.97;;;;;;;;;;5035470;28;20053;-77
2021/04/03 06:12:08;;;;;;;2.20;0.80;;;;;;;;;;5000278;28;20049;-77
2021/04/03 06:14:36;;;;;;;3.17;0.95;;;;;;;;;;5003090;28;20030;-77
2021/04/03 06:17:02;;;;;;;2.97;1.05;;;;;;;;;;5002540;28;20037;-77
2021/04/03 06:19:27;;;;;;;2.67;1.00;;;;;;;;;;5001889;28;20384;-78
2021/04/03 06:21:53;;;;;;;2.40;0.90;;;;;;;;;;5002190;28;20025;-78
2021/04/03 06:24:35;;;;;;;3.30;1.07;;;;;;;;;;5036547;28;20041;-78
2021/04/03 06:27:01;;;;;;;1.77;0.80;;;;;;;;;;5003308;28;20462;-78
2021/04/03 06:29:40;;;;;;;1.92;0.90;;;;;;;;;;5036308;28;20084;-78
2021/04/03 06:32:08;;;;;;;1.88;1.00;;;;;;;;;;5016006;28;20401;-78
2021/04/03 06:34:40;;;;;;;2.25;0.88;;;;;;;;;;5014988;28;20032;-78
2021/04/03 06:37:08;;;;;;;3.03;0.80;;;;;;;;;;5001587;28;20029;-77
2021/04/03 06:39:52;;;;;;;2.13;1.00;;;;;;;;;;5001827;28;20037;-79
2021/04/03 06:42:46;;;;;;;2.30;0.80;;;;;;;;;;5035486;28;20025;-78
2021/04/03 06:45:24;;;;;;;4.00;1.00;;;;;;;;;;5018132;28;20476;-78
2021/04/03 06:47:54;;;;;;;2.58;0.90;;;;;;;;;;5018262;28;20084;-77
2021/04/03 06:50:20;;;;;;;2.35;0.80;;;;;;;;;;4985635;28;20096;-78
2021/04/03 06:52:45;;;;;;;1.55;1.00;;;;;;;;;;5001124;28;20022;-78
2021/04/03 06:55:13;;;;;;;2.23;1.00;;;;;;;;;;4985321;28;20095;-78
2021/04/03 06:57:40;;;;;;;2.83;1.20;;;;;;;;;;5017448;28;20032;-77
2021/04/03 07:00:06;;;;;;;1.92;0.90;;;;;;;;;;5001249;28;20029;-77
2021/04/03 07:02:32;;;;;;;2.40;1.00;;;;;;;;;;5016510;28;20426;-77
2021/04/03 07:04:57;;;;;;;2.07;1.00;;;;;;;;;;5000389;28;20037;-77
2021/04/03 07:07:25;;;;;;;2.10;0.95;;;;;;;;;;5000969;28;20037;-77
2021/04/03 07:09:50;;;;;;;2.42;1.10;;;;;;;;;;5017745;28;20029;-77
2021/04/03 07:12:16;;;;;;;1.87;0.80;;;;;;;;;;5015799;28;20123;-77
2021/04/03 07:14:41;;;;;;;1.60;0.80;;;;;;;;;;4996050;28;20080;-77
2021/04/03 07:17:06;;;;;;;2.20;1.10;;;;;;;;;;4996901;28;20037;-77
2021/04/03 07:19:32;;;;;;;1.40;0.80;;;;;;;;;;5013183;28;20065;-77
2021/04/03 07:21:57;;;;;;;1.90;0.90;;;;;;;;;;4996970;28;20101;-77
2021/04/03 07:24:22;;;;;;;2.23;0.90;;;;;;;;;;4980746;28;20567;-77
2021/04/03 07:26:49;;;;;;;2.03;1.00;;;;;;;;;;4996749;28;20105;-77
2021/04/03 07:29:48;;;;;;;1.70;0.80;;;;;;;;;;4996939;28;20579;-77
2021/04/03 07:32:30;;;;;;;2.72;0.93;;;;;;;;;;5013067;28;20026;-77
2021/04/03 07:34:55;;;;;;;2.97;0.80;;;;;;;;;;5012752;28;20022;-77
2021/04/03 07:37:34;;;;;;;2.10;0.80;;;;;;;;;;4996328;28;20145;-77
2021/04/03 07:39:59;;;;;;;1.77;0.93;;;;;;;;;;4996612;28;20029;-77
2021/04/03 07:50:03;;;;;;;1.95;0.98;;;;;;;;;;5030643;28;20064;-77
2021/04/03 07:52:53;;;;;;;1.37;0.70;;;;;;;;;;5008147;28;20036;-77
2021/04/03 07:55:35;;;;;;;2.30;0.80;;;;;;;;;;5019616;28;20036;-77
2021/04/03 07:58:18;;;;;;;1.70;0.77;;;;;;;;;;5036028;28;20471;-77
2021/04/03 08:00:45;;;;;;;2.90;0.98;;;;;;;;;;5061550;23;20424;-73
2021/04/03 08:03:10;;;;;;;2.25;0.80;;;;;;;;;;5029733;28;20391;-73
2021/04/03 08:05:36;;;;;;;2.33;1.00;;;;;;;;;;5018811;28;20067;-73
2021/04/03 08:08:01;;;;;;;1.60;0.90;;;;;;;;;;5021596;28;20454;-74
2021/04/03 08:10:26;;;;;;;1.73;0.93;;;;;;;;;;5035239;28;20060;-74
2021/04/03 08:12:53;;;;;;;1.37;0.77;;;;;;;;;;5051396;28;20067;-74
2021/04/03 08:15:19;;;;;;;1.80;0.63;;;;;;;;;;5016372;28;20018;-74
2021/04/03 08:17:51;;;;;;;1.83;0.87;;;;;;;;;;5000689;28;20025;-74
2021/04/03 08:20:16;;;;;;;1.88;0.80;;;;;;;;;;5035277;28;20029;-74
2021/04/03 08:23:17;;;;;;;1.40;0.70;;;;;;;;;;5034648;28;20027;-74
2021/04/03 08:25:52;;;;;;;1.88;0.80;;;;;;;;;;4955670;28;20058;-74
2021/04/03 08:28:18;;;;;;;1.55;0.80;;;;;;;;;;5007904;28;20450;-74
2021/04/03 08:30:44;;;;;;;2.10;0.90;;;;;;;;;;5019657;28;20079;-74
2021/04/03 08:33:17;;;;;;;2.37;0.90;;;;;;;;;;5018209;28;20063;-75
2021/04/03 08:35:44;;;;;;;1.77;0.90;;;;;;;;;;5018603;28;20485;-74
2021/04/03 08:38:13;;;;;;;2.80;0.88;;;;;;;;;;5035024;28;20120;-75
2021/04/03 08:40:39;;;;;;;1.48;0.90;;;;;;;;;;5018217;28;20057;-74
2021/04/03 08:43:04;;;;;;;1.57;0.83;;;;;;;;;;5017762;28;20069;-74
2021/04/03 08:45:37;;;;;;;1.70;0.80;;;;;;;;;;5051140;28;20056;-74
2021/04/03 08:48:03;;;;;;;1.50;0.73;;;;;;;;;;5019758;28;20048;-74
2021/04/03 08:50:29;;;;;;;2.75;0.80;;;;;;;;;;5038720;28;20468;-74
2021/04/03 08:53:01;;;;;;;1.60;0.90;;;;;;;;;;5038740;28;20116;-74
2021/04/03 08:55:27;;;;;;;1.60;0.80;;;;;;;;;;5022151;28;20044;-74
2021/04/03 08:57:52;;;;;;;1.90;0.87;;;;;;;;;;5038521;28;20029;-75
2021/04/03 09:00:21;;;;;;;1.47;0.80;;;;;;;;;;5038234;28;20036;-75
2021/04/03 09:02:47;;;;;;;1.25;0.80;;;;;;;;;;5038569;28;20388;-74
2021/04/03 09:05:13;;;;;;;1.20;0.70;;;;;;;;;;5022106;28;20060;-74
2021/04/03 09:07:40;;;;;;;1.20;0.80;;;;;;;;;;5022176;28;20387;-75
2021/04/03 09:10:06;;;;;;;2.00;0.82;;;;;;;;;;5021796;28;20472;-75
2021/04/03 09:12:32;;;;;;;2.17;0.90;;;;;;;;;;5038291;28;20075;-74
2021/04/03 09:14:57;;;;;;;1.63;0.90;;;;;;;;;;5038503;28;20415;-74
2021/04/03 09:17:24;;;;;;;1.80;0.70;;;;;;;;;;5037574;28;20036;-73
2021/04/03 09:19:50;;;;;;;1.63;0.88;;;;;;;;;;5055044;28;20036;-73
2021/04/03 09:22:17;;;;;;;2.30;0.90;;;;;;;;;;5037715;28;20021;-75
2021/04/03 09:24:42;;;;;;;;;;;;;;;;;;5038676;28;20298;-74
2021/04/03 09:27:10;;;;;;;1.87;0.53;;;;;;;;;;5037395;28;19912;-74
2021/04/03 09:29:36;;;;;;;1.15;0.70;;;;;;;;;;5056239;28;20433;-75
2021/04/03 09:32:06;;;;;;;1.83;0.80;;;;;;;;;;5037992;28;20024;-74
2021/04/03 09:34:32;;;;;;;2.75;0.80;;;;;;;;;;5037871;28;20020;-73
2021/04/03 09:36:59;;;;;;;1.30;0.80;;;;;;;;;;5038081;28;20020;-74
2021/04/03 09:39:24;;;;;;;2.00;0.90;;;;;;;;;;5021409;28;20068;-74
2021/04/03 09:41:52;;;;;;;3.27;1.07;;;;;;;;;;5037669;28;20079;-74
2021/04/03 09:44:18;;;;;;;1.33;0.73;;;;;;;;;;5038295;28;20173;-75
2021/04/03 09:46:43;;;;;;;2.07;0.70;;;;;;;;;;5021310;28;20131;-75
2021/04/03 09:49:12;;;;;;;1.30;0.80;;;;;;;;;;5037838;28;20021;-75
2021/04/03 09:51:37;;;;;;;2.00;0.73;;;;;;;;;;5037920;28;20264;-75
2021/04/03 09:54:04;;;;;;;1.30;0.70;;;;;;;;;;5037953;28;20391;-75
2021/04/03 09:56:29;;;;;;;1.73;0.80;;;;;;;;;;5038029;28;20029;-75
2021/04/03 09:58:56;;;;;;;4.17;0.80;;;;;;;;;;5036940;28;20403;-75
2021/04/03 10:01:22;;;;;;;1.30;0.70;;;;;;;;;;5038350;28;20031;-73
2021/04/03 10:03:47;;;;;;;3.07;0.90;;;;;;;;;;5037380;28;20037;-74
2021/04/03 10:06:12;;;;;;;1.87;0.90;;;;;;;;;;5037443;28;20056;-75
2021/04/03 10:08:38;;;;;;;1.33;0.63;;;;;;;;;;5021101;28;20049;-75
2021/04/03 10:11:04;;;;;;;1.37;0.70;;;;;;;;;;5037108;28;20052;-75
2021/04/03 10:13:29;;;;;;;1.30;0.77;;;;;;;;;;5022328;28;20025;-75
2021/04/03 10:15:55;;;;;;;1.60;0.70;;;;;;;;;;5001398;28;20392;-75
2021/04/03 10:18:20;;;;;;;2.00;0.70;;;;;;;;;;5020545;28;20098;-75
2021/04/03 10:20:46;;;;;;;1.90;0.77;;;;;;;;;;5020439;28;20056;-75
2021/04/03 10:23:11;;;;;;;4.07;1.00;;;;;;;;;;5020669;28;20033;-75
2021/04/03 10:25:37;;;;;;;1.30;0.87;;;;;;;;;;5054153;28;20021;-75
2021/04/03 10:28:02;;;;;;;4.07;1.10;;;;;;;;;;5037855;28;20503;-75
2021/04/03 10:30:27;;;;;;;4.17;1.07;;;;;;;;;;5039275;28;20021;-75
2021/04/03 10:32:53;;;;;;;1.93;0.83;;;;;;;;;;5036900;28;20488;-74
2021/04/03 10:35:18;;;;;;;4.83;1.17;;;;;;;;;;5020734;28;20110;-74
2021/04/03 10:37:43;;;;;;;2.70;1.03;;;;;;;;;;5037184;28;20610;-74
2021/04/03 10:40:09;;;;;;;3.43;0.90;;;;;;;;;;5020447;28;20384;-74
2021/04/03 10:42:34;;;;;;;2.43;1.00;;;;;;;;;;5020275;28;20017;-74
2021/04/03 10:45:00;;;;;;;2.63;1.00;;;;;;;;;;5020332;28;20142;-76
2021/04/03 10:47:27;;;;;;;2.07;0.90;;;;;;;;;;5036995;28;20105;-74
2021/04/03 10:49:52;;;;;;;2.47;1.13;;;;;;;;;;5020298;28;20021;-74
2021/04/03 10:52:17;;;;;;;2.37;1.00;;;;;;;;;;5020147;28;20108;-75
2021/04/03 10:54:43;;;;;;;2.93;1.00;;;;;;;;;;5036872;28;20048;-75
2021/04/03 10:57:08;;;;;;;2.57;0.83;;;;;;;;;;5036620;28;20024;-74
2021/04/03 10:59:34;;;;;;;2.57;1.00;;;;;;;;;;5053097;28;20064;-73
2021/04/03 11:01:59;;;;;;;2.30;0.90;;;;;;;;;;5036448;28;20052;-74
2021/04/03 11:04:24;;;;;;;5.60;1.10;;;;;;;;;;5053144;28;20115;-73
2021/04/03 11:06:50;;;;;;;2.70;1.00;;;;;;;;;;5036356;28;20462;-75
2021/04/03 11:09:15;;;;;;;2.30;0.97;;;;;;;;;;5035976;28;20059;-76
2021/04/03 11:11:41;;;;;;;2.43;1.10;;;;;;;;;;5036933;28;20094;-76
2021/04/03 11:14:06;;;;;;;3.03;1.13;;;;;;;;;;5019909;28;20108;-76
2021/04/03 11:16:31;;;;;;;3.73;1.10;;;;;;;;;;5037134;28;20107;-74
2021/04/03 11:18:57;;;;;;;3.30;0.90;;;;;;;;;;5036694;28;20025;-74
2021/04/03 11:21:22;;;;;;;2.33;1.07;;;;;;;;;;5032618;28;20117;-74
2021/04/03 11:23:49;;;;;;;3.60;1.20;;;;;;;;;;5034594;28;20036;-74
2021/04/03 11:26:15;;;;;;;2.80;1.15;;;;;;;;;;5036179;28;20029;-74
2021/04/03 11:28:40;;;;;;;2.50;1.10;;;;;;;;;;5019181;28;20499;-74
2021/04/03 11:31:05;;;;;;;2.37;1.03;;;;;;;;;;5035596;28;20013;-74
2021/04/03 11:33:31;;;;;;;2.17;0.90;;;;;;;;;;5054500;28;20555;-74
2021/04/03 11:35:56;;;;;;;3.03;1.10;;;;;;;;;;5035809;28;20459;-74
2021/04/03 11:38:21;;;;;;;2.17;1.07;;;;;;;;;;5019526;28;20028;-73
2021/04/03 11:40:47;;;;;;;2.23;1.00;;;;;;;;;;5032077;28;20136;-74
2021/04/03 11:43:12;;;;;;;3.90;1.23;;;;;;;;;;4999556;28;20061;-74
2021/04/03 11:45:37;;;;;;;1.87;1.07;;;;;;;;;;5012480;28;20025;-75
2021/04/03 11:48:03;;;;;;;3.13;1.23;;;;;;;;;;5035748;28;20052;-74
2021/04/03 11:50:28;;;;;;;2.33;1.00;;;;;;;;;;5035742;28;20024;-74
2021/04/03 11:52:54;;;;;;;3.93;1.00;;;;;;;;;;5035088;28;20056;-73
2021/04/03 11:55:20;;;;;;;1.60;0.90;;;;;;;;;;5019061;28;20116;-74
2021/04/03 11:57:45;;;;;;;2.05;1.25;;;;;;;;;;5035674;28;20028;-74
2021/04/03 12:00:11;;;;;;;2.20;1.00;;;;;;;;;;5035231;28;20041;-75
2021/04/03 12:02:37;;;;;;;3.00;1.10;;;;;;;;;;5018773;28;20399;-75
2021/04/03 12:05:10;;;;;;;3.40;1.10;;;;;;;;;;5035433;28;20543;-74
2021/04/03 12:07:37;;;;;;;3.13;0.93;;;;;;;;;;5035203;28;20095;-74
2021/04/03 12:10:04;;;;;;;2.83;1.40;;;;;;;;;;5018815;28;20036;-74
2021/04/03 12:12:29;;;;;;;5.20;2.00;;;;;;;;;;5035344;28;20127;-74
2021/04/03 12:14:55;;;;;;;7.30;1.77;;;;;;;;;;5018934;28;20495;-74
2021/04/03 12:17:20;;;;;;;4.13;2.00;;;;;;;;;;5034991;28;20060;-74
2021/04/03 12:19:45;;;;;;;4.43;1.90;;;;;;;;;;5035271;28;20053;-75
2021/04/03 12:22:11;;;;;;;4.93;2.20;;;;;;;;;;5018500;28;20056;-75
2021/04/03 12:24:36;;;;;;;5.77;1.80;;;;;;;;;;5034993;28;20056;-74
2021/04/03 12:27:02;;;;;;;6.43;1.70;;;;;;;;;;5051637;28;20480;-74
2021/04/03 12:29:27;;;;;;;5.20;1.50;;;;;;;;;;5018355;28;20039;-74
2021/04/03 12:31:52;;;;;;;5.03;1.57;;;;;;;;;;5018488;28;20028;-74
2021/04/03 12:34:17;;;;;;;5.63;1.40;;;;;;;;;;5035196;28;20115;-75
2021/04/03 12:36:43;;;;;;;4.97;1.30;;;;;;;;;;5035216;28;20064;-75
2021/04/03 12:39:08;;;;;;;5.87;1.30;;;;;;;;;;5035025;28;20117;-75
2021/04/03 12:41:33;;;;;;;3.10;1.43;;;;;;;;;;5035096;28;20105;-75
2021/04/03 12:43:59;;;;;;;7.30;1.40;;;;;;;;;;5051791;28;20029;-75
2021/04/03 12:46:24;;;;;;;6.70;1.37;;;;;;;;;;5051365;28;20059;-75
2021/04/03 12:48:49;;;;;;;5.13;1.30;;;;;;;;;;5018237;28;20051;-75
2021/04/03 12:51:15;;;;;;;4.50;1.43;;;;;;;;;;5034972;28;20052;-75
2021/04/03 12:53:40;;;;;;;4.83;1.50;;;;;;;;;;5018630;28;20060;-75
2021/04/03 12:56:06;;;;;;;4.27;1.60;;;;;;;;;;5034739;28;20032;-75
2021/04/03 12:58:31;;;;;;;4.47;1.80;;;;;;;;;;5052351;28;20073;-75
2021/04/03 13:00:56;;;;;;;4.80;1.90;;;;;;;;;;5051117;28;20056;-75
2021/04/03 13:03:22;;;;;;;6.80;2.10;;;;;;;;;;5018451;28;20052;-75
2021/04/03 13:05:47;;;;;;;5.00;1.43;;;;;;;;;;5051676;28;20024;-76
2021/04/03 13:08:12;;;;;;;6.70;1.60;;;;;;;;;;5034671;28;20067;-75
2021/04/03 13:10:38;;;;;;;3.73;1.40;;;;;;;;;;5017714;28;20541;-75
2021/04/03 13:13:03;;;;;;;9.10;1.80;;;;;;;;;;5018276;28;20078;-75
2021/04/03 13:15:29;;;;;;;5.40;1.43;;;;;;;;;;5018063;28;20115;-75
2021/04/03 13:17:54;;;;;;;5.63;1.50;;;;;;;;;;5034919;28;20038;-75
2021/04/03 13:20:20;;;;;;;4.77;1.40;;;;;;;;;;5052179;28;20025;-75
2021/04/03 13:22:45;;;;;;;6.10;1.40;;;;;;;;;;5051153;28;20070;-74
2021/04/03 13:25:11;;;;;;;5.33;1.60;;;;;;;;;;5035030;28;20035;-75
2021/04/03 13:27:36;;;;;;;4.80;1.50;;;;;;;;;;5034629;28;20029;-75
2021/04/03 13:30:06;;;;;;;4.43;1.73;;;;;;;;;;5033469;28;20063;-74
2021/04/03 13:32:32;;;;;;;6.57;2.83;;;;;;;;;;5017907;28;20364;-75
2021/04/03 13:34:57;;;;;;;4.30;1.70;;;;;;;;;;5020631;28;20082;-74
2021/04/03 13:37:23;;;;;;;3.97;1.57;;;;;;;;;;5038260;28;20549;-75
2021/04/03 13:39:48;;;;;;;5.17;1.57;;;;;;;;;;5037932;28;20428;-74
2021/04/03 13:42:13;;;;;;;4.93;1.77;;;;;;;;;;5021381;28;20061;-74
2021/04/03 13:44:39;;;;;;;3.97;1.27;;;;;;;;;;5021564;28;20054;-74
2021/04/03 13:47:05;;;;;;;5.33;1.77;;;;;;;;;;5021394;28;20114;-74
2021/04/03 13:49:33;;;;;;;6.25;1.45;;;;;;;;;;5037158;28;20074;-74
2021/04/03 13:51:58;;;;;;;5.43;1.60;;;;;;;;;;5021203;28;20025;-75
2021/04/03 13:54:24;;;;;;;6.50;1.50;;;;;;;;;;5037878;28;20387;-74
2021/04/03 13:56:49;;;;;;;4.33;1.33;;;;;;;;;;5037683;28;20095;-74
2021/04/03 13:59:14;;;;;;;5.27;1.30;;;;;;;;;;5037782;28;20110;-74
2021/04/03 14:01:40;;;;;;;4.13;1.50;;;;;;;;;;5037140;28;20068;-74
2021/04/03 14:04:05;;;;;;;3.23;1.40;;;;;;;;;;5053792;28;20055;-75
2021/04/03 14:06:30;;;;;;;4.07;1.27;;;;;;;;;;5054606;28;20107;-74
2021/04/03 14:08:56;;;;;;;2.53;1.20;;;;;;;;;;5037676;28;20044;-73
2021/04/03 14:11:21;;;;;;;6.83;1.43;;;;;;;;;;5037371;28;20487;-73
2021/04/03 14:13:47;;;;;;;4.03;1.30;;;;;;;;;;5058328;28;20448;-74
2021/04/03 14:16:12;;;;;;;5.40;1.50;;;;;;;;;;5036435;28;20043;-74
2021/04/03 14:18:37;;;;;;;5.33;1.50;;;;;;;;;;5036928;28;20101;-76
2021/04/03 14:21:03;;;;;;;3.33;1.33;;;;;;;;;;5037271;28;20048;-75
2021/04/03 14:23:28;;;;;;;2.20;1.10;;;;;;;;;;5037244;28;20036;-75
2021/04/03 14:25:54;;;;;;;4.20;1.37;;;;;;;;;;5020737;28;20522;-75
2021/04/03 14:28:19;;;;;;;4.13;1.60;;;;;;;;;;5020501;28;20024;-74
2021/04/03 14:30:45;;;;;;;4.87;1.30;;;;;;;;;;5053397;28;20027;-73
2021/04/03 14:33:10;;;;;;;5.03;1.53;;;;;;;;;;5020173;28;20031;-73
2021/04/03 14:35:35;;;;;;;3.80;1.47;;;;;;;;;;5027546;28;20127;-74
2021/04/03 14:38:01;;;;;;;5.63;1.60;;;;;;;;;;5037621;28;20472;-73
2021/04/03 14:40:26;;;;;;;4.00;1.37;;;;;;;;;;5020559;28;20025;-74
2021/04/03 14:42:52;;;;;;;4.97;1.27;;;;;;;;;;5003705;28;20121;-73
2021/04/03 14:45:17;;;;;;;4.00;1.50;;;;;;;;;;5053316;28;20379;-74
2021/04/03 14:47:42;;;;;;;3.90;1.60;;;;;;;;;;5036866;28;20029;-74
2021/04/03 14:50:09;;;;;;;3.23;1.23;;;;;;;;;;5036533;28;20563;-74